This is the latest recevied weather packets stored in our database for station/object KD2FKI. If no packets are shown the sender has not sent any weather packets the latest 10 day(s).
| Time | Temp. | Humidity | Pressure | Rain* | Wind** | Luminosity | Snow |
|---|---|---|---|---|---|---|---|
| 1787948125 | 31.11° C | 56% | - | 0 mm | - | - | - |
| 1787947520 | 31.11° C | 56% | - | 0 mm | - | - | - |
| 1787946936 | 31.67° C | 54% | - | 0 mm | - | - | - |
| 1787946334 | 31.67° C | 54% | - | 0 mm | - | - | - |
| 1787945732 | 32.22° C | 53% | - | 0 mm | - | - | - |
| 1787945129 | 32.78° C | 51% | - | 0 mm | - | - | - |
| 1787944527 | 33.89° C | 50% | - | 0 mm | - | - | - |
| 1787943925 | 34.44° C | 50% | - | 0 mm | - | - | - |
| 1787943323 | 33.89° C | 50% | - | 0 mm | - | - | - |
| 1787942722 | 35.56° C | 46% | - | 0 mm | - | - | - |
| 1787942137 | 34.44° C | 48% | - | 0 mm | - | - | - |
| 1787941536 | 35° C | 47% | - | 0 mm | - | - | - |
| 1787940931 | 34.44° C | 48% | - | 0 mm | - | - | - |
| 1787940329 | 34.44° C | 48% | - | 0 mm | - | - | - |
| 1787939749 | 34.44° C | 49% | - | 0 mm | - | - | - |
| 1787939125 | 33.89° C | 52% | - | 0 mm | - | - | - |
| 1787938524 | 33.89° C | 51% | - | 0 mm | - | - | - |
| 1787937923 | 33.33° C | 52% | - | 0 mm | - | - | - |
| 1787937338 | 32.78° C | 54% | - | 0 mm | - | - | - |
| 1787936734 | 31.67° C | 56% | - | 0 mm | - | - | - |
| 1787936131 | 32.22° C | 55% | - | 0 mm | - | - | - |
| 1787935529 | 31.67° C | 57% | - | 0 mm | - | - | - |
| 1787934926 | 31.67° C | 57% | - | 0 mm | - | - | - |
| 1787934327 | 30.56° C | 60% | - | 0 mm | - | - | - |
| 1787933722 | 31.11° C | 58% | - | 0 mm | - | - | - |
* Rain latest hour (hover to see other rain measurements)
** Current wind speed in m/s (hover to see current wind gust speed)